Time;durP1;ratioP1;P1;durP2;ratioP2;P2;SDS_P1;SDS_P2;PMS_P1;PMS_P2;Temp;Humidity;BMP_temperature;BMP_pressure;BME280_temperature;BME280_humidity;BME280_pressure;Samples;Min_cycle;Max_cycle;Signal;HPM_P1;HPM_P2
2021/11/28 00:02:25;;;;;;;4.33;3.93;;;5.30;1.00;;;;;;5053541;28;20970;-56
2021/11/28 00:04:53;;;;;;;3.90;3.50;;;5.20;1.00;;;;;;5049754;28;20455;-56
2021/11/28 00:15:03;;;;;;;3.63;3.30;;;;;;;;;;5049944;28;20613;-56
2021/11/28 00:17:29;;;;;;;4.73;4.33;;;5.30;1.00;;;;;;5054167;28;20500;-56
2021/11/28 00:19:55;;;;;;;3.53;3.23;;;;;;;;;;5058851;28;20541;-55
2021/11/28 00:22:24;;;;;;;4.23;3.73;;;5.60;1.00;;;;;;5062229;28;20213;-56
2021/11/28 00:24:50;;;;;;;4.00;3.70;;;;;;;;;;5049486;28;20506;-57
2021/11/28 00:27:17;;;;;;;5.00;4.47;;;5.70;1.00;;;;;;5044845;28;20936;-56
2021/11/28 00:29:43;;;;;;;3.50;3.20;;;;;;;;;;5056381;28;20935;-56
2021/11/28 00:32:09;;;;;;;4.80;4.30;;;;;;;;;;5051905;28;20525;-58
2021/11/28 00:34:35;;;;;;;4.07;3.67;;;5.50;1.00;;;;;;5052907;28;20496;-55
2021/11/28 00:37:01;;;;;;;4.80;4.33;;;5.30;1.00;;;;;;5052989;28;20443;-56
2021/11/28 00:39:27;;;;;;;6.10;4.90;;;;;;;;;;5053102;28;20187;-61
2021/11/28 00:41:53;;;;;;;5.20;4.77;;;5.30;1.00;;;;;;5057899;28;20191;-54
2021/11/28 00:44:19;;;;;;;5.37;4.80;;;;;;;;;;5054781;28;20455;-57
2021/11/28 00:46:45;;;;;;;7.00;5.90;;;5.50;1.00;;;;;;5050646;28;20458;-56
2021/11/28 00:49:21;;;;;;;5.30;4.80;;;;;;;;;;5048213;28;20786;-56
2021/11/28 00:51:50;;;;;;;5.10;4.60;;;;;;;;;;5051838;28;20630;-56
2021/11/28 00:54:16;;;;;;;5.80;5.20;;;;;;;;;;5051581;28;20527;-57
2021/11/28 00:56:43;;;;;;;5.90;5.30;;;5.70;1.00;;;;;;5049444;28;20446;-56
2021/11/28 00:59:09;;;;;;;5.37;4.87;;;;;;;;;;5051236;28;20443;-54
2021/11/28 01:01:35;;;;;;;5.90;5.30;;;5.90;1.00;;;;;;5053313;28;20721;-56
2021/11/28 01:04:03;;;;;;;6.10;5.60;;;6.00;1.00;;;;;;5058607;28;20432;-55
2021/11/28 01:06:29;;;;;;;5.40;4.40;;;;;;;;;;5050508;28;20552;-57
2021/11/28 01:08:55;;;;;;;5.23;4.73;;;6.00;1.00;;;;;;5046791;28;20512;-56
2021/11/28 01:11:22;;;;;;;5.40;4.90;;;5.90;1.00;;;;;;5054763;28;20986;-57
2021/11/28 01:13:49;;;;;;;7.10;5.83;;;6.00;1.00;;;;;;5057930;28;20412;-55
2021/11/28 01:16:14;;;;;;;6.10;5.50;;;6.10;1.00;;;;;;5052493;28;20992;-57
2021/11/28 01:18:40;;;;;;;6.40;5.80;;;6.10;1.00;;;;;;5049178;28;20529;-56
2021/11/28 01:21:06;;;;;;;5.53;4.93;;;6.30;1.00;;;;;;5049626;28;20187;-55
2021/11/28 01:23:34;;;;;;;6.40;5.20;;;6.20;1.00;;;;;;5053113;28;20223;-56
2021/11/28 01:25:59;;;;;;;6.97;6.17;;;6.10;1.00;;;;;;5056693;28;21005;-55
2021/11/28 01:28:25;;;;;;;6.10;5.50;;;6.30;1.00;;;;;;5052292;28;20457;-54
2021/11/28 01:30:51;;;;;;;6.13;5.53;;;;;;;;;;5054539;28;20203;-54
2021/11/28 01:33:17;;;;;;;5.97;5.37;;;6.30;1.00;;;;;;5050067;28;20196;-57
2021/11/28 01:35:42;;;;;;;5.70;5.20;;;6.20;1.00;;;;;;5059427;28;20475;-55
2021/11/28 01:38:08;;;;;;;5.80;5.23;;;6.10;1.00;;;;;;5060788;28;20195;-55
2021/11/28 01:40:34;;;;;;;5.90;5.23;;;6.20;1.00;;;;;;5050047;28;20195;-55
2021/11/28 01:43:12;;;;;;;6.90;5.80;;;6.20;1.00;;;;;;5051592;28;20427;-56
2021/11/28 01:45:39;;;;;;;6.00;5.40;;;6.00;1.00;;;;;;5058854;28;20180;-57
2021/11/28 01:48:07;;;;;;;5.97;5.37;;;6.00;1.00;;;;;;5062114;28;20445;-57
2021/11/28 01:50:35;;;;;;;6.33;5.47;;;6.00;1.00;;;;;;5052771;28;20533;-57
2021/11/28 01:53:05;;;;;;;5.40;4.90;;;5.90;1.00;;;;;;5053409;28;20832;-56
2021/11/28 01:55:32;;;;;;;4.97;4.50;;;5.80;1.00;;;;;;5047284;28;20969;-56
2021/11/28 01:58:00;;;;;;;6.13;5.53;;;5.70;1.00;;;;;;5049288;28;20466;-54
2021/11/28 02:00:32;;;;;;;6.07;5.00;;;5.60;1.00;;;;;;5054763;28;20443;-56
2021/11/28 02:02:58;;;;;;;7.83;6.10;;;5.50;1.00;;;;;;5050544;28;20848;-53
2021/11/28 02:05:24;;;;;;;5.27;4.77;;;5.20;1.00;;;;;;5053950;28;20455;-55
2021/11/28 02:07:50;;;;;;;5.70;5.20;;;;;;;;;;5047670;28;20447;-55
2021/11/28 02:10:17;;;;;;;6.30;5.13;;;;;;;;;;5060261;28;20482;-56
2021/11/28 02:12:45;;;;;;;6.60;5.43;;;5.40;1.00;;;;;;5057326;28;20457;-56
2021/11/28 02:15:11;;;;;;;5.97;5.40;;;;;;;;;;5056633;28;20500;-54
2021/11/28 02:17:37;;;;;;;7.90;5.10;;;;;;;;;;5057794;28;20486;-56
2021/11/28 02:20:06;;;;;;;7.70;5.77;;;5.20;1.00;;;;;;5048040;28;20450;-55
2021/11/28 02:22:31;;;;;;;7.50;5.87;;;5.30;1.00;;;;;;5054266;28;20492;-55
2021/11/28 02:24:58;;;;;;;6.57;5.97;;;;;;;;;;5060109;28;20860;-57
2021/11/28 02:27:24;;;;;;;6.00;5.40;;;;;;;;;;5055407;28;20447;-54
2021/11/28 02:29:50;;;;;;;6.63;5.97;;;;;;;;;;5054664;28;20799;-56
2021/11/28 02:32:16;;;;;;;7.40;6.00;;;;;;;;;;5053720;28;20804;-54
2021/11/28 02:34:41;;;;;;;7.03;5.80;;;4.90;1.00;;;;;;5048943;28;20472;-54
2021/11/28 02:37:07;;;;;;;6.70;5.90;;;;;;;;;;5050415;28;20791;-54
2021/11/28 02:39:35;;;;;;;6.60;5.93;;;4.70;1.00;;;;;;5051264;28;20292;-55
2021/11/28 02:42:01;;;;;;;7.80;5.93;;;4.70;1.00;;;;;;5051717;28;20443;-55
2021/11/28 02:44:27;;;;;;;6.17;5.50;;;4.70;1.00;;;;;;5052993;28;20445;-54
2021/11/28 02:46:53;;;;;;;6.53;5.60;;;4.70;1.00;;;;;;5056173;28;20473;-55
2021/11/28 02:49:19;;;;;;;7.50;6.00;;;;;;;;;;5053587;28;20490;-55
2021/11/28 02:51:45;;;;;;;6.33;5.73;;;;;;;;;;5059731;28;20894;-54
2021/11/28 02:54:11;;;;;;;8.47;6.47;;;;;;;;;;5054984;28;20458;-55
2021/11/28 02:56:42;;;;;;;6.27;5.67;;;4.60;1.00;;;;;;5058554;28;20470;-55
2021/11/28 02:59:08;;;;;;;7.43;6.20;;;4.60;1.00;;;;;;5058415;28;20454;-54
2021/11/28 03:01:34;;;;;;;6.77;5.47;;;;;;;;;;5058243;28;20576;-55
2021/11/28 03:04:00;;;;;;;7.57;6.57;;;4.40;1.00;;;;;;5054699;28;20439;-55
2021/11/28 03:06:25;;;;;;;6.63;6.03;;;4.40;1.00;;;;;;5061719;28;20497;-55
2021/11/28 03:08:52;;;;;;;6.23;5.57;;;4.50;1.00;;;;;;5062701;28;20182;-55
2021/11/28 03:11:18;;;;;;;7.50;6.47;;;4.40;1.00;;;;;;5062242;28;20553;-55
2021/11/28 03:13:49;;;;;;;8.23;6.33;;;4.30;1.00;;;;;;5052099;28;20526;-55
2021/11/28 03:16:19;;;;;;;7.40;5.53;;;4.30;1.00;;;;;;5053172;28;20200;-55
2021/11/28 03:18:46;;;;;;;6.97;6.27;;;4.30;1.00;;;;;;5050330;28;20452;-53
2021/11/28 03:21:15;;;;;;;6.53;5.63;;;4.30;1.00;;;;;;5051678;28;20778;-56
2021/11/28 03:23:43;;;;;;;6.00;5.30;;;4.20;1.00;;;;;;5052393;28;20557;-56
2021/11/28 03:26:18;;;;;;;6.90;6.20;;;4.20;1.00;;;;;;5060739;28;20458;-55
2021/11/28 03:28:54;;;;;;;5.77;5.10;;;4.20;1.00;;;;;;5052499;28;20961;-56
2021/11/28 03:31:21;;;;;;;7.07;5.57;;;;;;;;;;5051588;28;20498;-55
2021/11/28 03:33:48;;;;;;;8.60;6.90;;;4.20;1.00;;;;;;5050703;28;20489;-56
2021/11/28 03:36:18;;;;;;;6.90;5.83;;;4.10;1.00;;;;;;5052405;28;20532;-55
2021/11/28 03:38:44;;;;;;;9.77;6.03;;;;;;;;;;5056664;28;20441;-54
2021/11/28 03:41:11;;;;;;;7.53;6.40;;;;;;;;;;5055068;28;20446;-55
2021/11/28 03:43:38;;;;;;;6.73;6.03;;;4.10;1.00;;;;;;5062875;28;20446;-56
2021/11/28 03:46:05;;;;;;;6.50;5.73;;;4.10;1.00;;;;;;5050583;28;20852;-55
2021/11/28 03:48:31;;;;;;;7.47;5.40;;;;;;;;;;5055671;28;20500;-56
2021/11/28 03:50:57;;;;;;;7.47;6.00;;;4.10;1.00;;;;;;5062206;28;20453;-54
2021/11/28 03:53:23;;;;;;;7.17;5.50;;;4.20;1.00;;;;;;5057463;28;20541;-55
2021/11/28 03:55:50;;;;;;;7.47;5.93;;;;;;;;;;5053423;28;20494;-55
2021/11/28 03:58:16;;;;;;;8.40;6.03;;;4.20;1.00;;;;;;5051753;28;20447;-55
2021/11/28 04:00:42;;;;;;;7.60;6.30;;;;;;;;;;5050167;28;20874;-54
2021/11/28 04:03:10;;;;;;;6.63;5.73;;;4.20;1.00;;;;;;5045152;28;20214;-55
2021/11/28 04:05:36;;;;;;;6.53;5.70;;;4.20;1.00;;;;;;5045277;28;20443;-53
2021/11/28 04:08:02;;;;;;;5.13;4.70;;;4.20;1.00;;;;;;5051510;28;20441;-55
2021/11/28 04:10:28;;;;;;;7.30;6.00;;;;;;;;;;5054717;28;20648;-56
2021/11/28 04:12:54;;;;;;;6.00;5.40;;;4.10;1.00;;;;;;5057737;28;20453;-54
2021/11/28 04:15:19;;;;;;;8.80;6.30;;;4.20;1.00;;;;;;5052281;28;20473;-55
2021/11/28 04:17:45;;;;;;;6.73;5.77;;;;;;;;;;5057602;28;20244;-55
2021/11/28 04:20:11;;;;;;;6.77;6.10;;;4.20;1.00;;;;;;5049680;28;20212;-55
2021/11/28 04:22:37;;;;;;;8.27;6.23;;;4.10;1.00;;;;;;5048827;28;20492;-54
2021/11/28 04:25:06;;;;;;;8.03;6.50;;;4.10;1.00;;;;;;5056457;28;20262;-55
2021/11/28 04:27:31;;;;;;;9.00;6.20;;;4.10;1.00;;;;;;5057693;28;20575;-56
2021/11/28 04:29:57;;;;;;;9.73;6.87;;;;;;;;;;5054449;28;21160;-56
2021/11/28 04:32:23;;;;;;;6.30;5.70;;;4.10;1.00;;;;;;5049730;28;20192;-54
2021/11/28 04:34:49;;;;;;;6.97;5.80;;;;;;;;;;5044067;28;20482;-55
2021/11/28 04:37:15;;;;;;;8.40;5.90;;;;;;;;;;5054206;28;20644;-56
2021/11/28 04:39:41;;;;;;;8.70;6.17;;;4.00;1.00;;;;;;5064212;28;20446;-55
2021/11/28 04:42:07;;;;;;;6.27;5.20;;;4.00;1.00;;;;;;5058299;28;20446;-54
2021/11/28 04:44:33;;;;;;;7.20;6.10;;;4.00;1.00;;;;;;5049652;28;20232;-56
2021/11/28 04:46:58;;;;;;;6.80;6.07;;;4.10;1.00;;;;;;5052719;28;20836;-55
2021/11/28 04:49:24;;;;;;;8.63;5.50;;;4.00;1.00;;;;;;5057808;28;20550;-55
2021/11/28 04:51:50;;;;;;;5.70;4.80;;;4.00;1.00;;;;;;5057751;28;20190;-54
2021/11/28 04:54:17;;;;;;;5.33;4.73;;;4.00;1.00;;;;;;5053358;28;20493;-56
2021/11/28 04:56:43;;;;;;;4.73;4.20;;;3.90;1.00;;;;;;5058089;28;20838;-54
2021/11/28 04:59:08;;;;;;;7.23;5.27;;;3.90;1.00;;;;;;5052426;28;20508;-53
2021/11/28 05:01:34;;;;;;;6.60;4.80;;;3.80;1.00;;;;;;5050058;28;20449;-56
2021/11/28 05:04:01;;;;;;;5.87;4.60;;;;;;;;;;5055052;28;20199;-54
2021/11/28 05:06:27;;;;;;;7.00;5.17;;;;;;;;;;5042240;28;20457;-54
2021/11/28 05:08:53;;;;;;;5.97;5.30;;;3.80;1.00;;;;;;5053467;28;20551;-54
2021/11/28 05:11:19;;;;;;;6.13;5.00;;;3.80;1.00;;;;;;5051031;28;20516;-54
2021/11/28 05:13:45;;;;;;;5.87;5.33;;;;;;;;;;5055400;28;20463;-54
2021/11/28 05:16:10;;;;;;;5.43;4.80;;;3.80;1.00;;;;;;5050761;28;20548;-55
2021/11/28 05:18:36;;;;;;;6.37;5.00;;;3.70;1.00;;;;;;5047741;28;20456;-54
2021/11/28 05:21:02;;;;;;;5.73;4.53;;;;;;;;;;5060275;28;20178;-55
2021/11/28 05:23:28;;;;;;;5.23;4.73;;;3.70;1.00;;;;;;5050056;28;20197;-54
2021/11/28 05:25:54;;;;;;;7.03;4.67;;;3.70;1.00;;;;;;5048954;28;20470;-54
2021/11/28 05:28:20;;;;;;;6.83;4.80;;;3.80;1.00;;;;;;5052713;28;20195;-55
2021/11/28 05:30:45;;;;;;;4.30;3.90;;;3.80;1.00;;;;;;5052829;28;20557;-54
2021/11/28 05:33:11;;;;;;;7.20;4.67;;;3.80;1.00;;;;;;5048885;28;20199;-55
2021/11/28 05:35:37;;;;;;;5.27;4.50;;;3.80;1.00;;;;;;5056208;28;20326;-56
2021/11/28 05:38:03;;;;;;;8.93;4.80;;;3.90;1.00;;;;;;5053163;28;20188;-56
2021/11/28 05:40:29;;;;;;;9.33;5.73;;;3.90;1.00;;;;;;5055881;28;20191;-54
2021/11/28 05:42:55;;;;;;;5.43;4.90;;;;;;;;;;5061024;28;20444;-56
2021/11/28 05:45:22;;;;;;;5.67;4.80;;;3.80;1.00;;;;;;5060075;28;20482;-55
2021/11/28 05:47:49;;;;;;;8.13;5.20;;;3.80;1.00;;;;;;5059337;28;20444;-54
2021/11/28 05:50:16;;;;;;;6.70;5.43;;;3.90;1.00;;;;;;5053685;28;20441;-54
2021/11/28 05:52:42;;;;;;;6.67;5.13;;;3.80;1.00;;;;;;5051903;28;20522;-55
2021/11/28 05:55:09;;;;;;;5.33;4.83;;;3.80;1.00;;;;;;5054967;28;20968;-55
2021/11/28 05:57:35;;;;;;;9.03;5.43;;;3.80;1.00;;;;;;5053925;28;20667;-52
2021/11/28 06:00:01;;;;;;;5.60;5.03;;;;;;;;;;5051165;28;20479;-54
2021/11/28 06:02:27;;;;;;;9.00;5.50;;;3.80;1.00;;;;;;5050339;28;20953;-56
2021/11/28 06:04:53;;;;;;;5.33;4.80;;;;;;;;;;5053717;28;20802;-55
2021/11/28 06:07:19;;;;;;;7.93;5.17;;;;;;;;;;5052047;28;20692;-54
2021/11/28 06:09:45;;;;;;;5.47;4.50;;;;;;;;;;5053520;28;20459;-54
2021/11/28 06:12:11;;;;;;;5.30;4.73;;;;;;;;;;5053887;28;20821;-56
2021/11/28 06:14:37;;;;;;;5.90;5.20;;;3.70;1.00;;;;;;5055458;28;20839;-56
2021/11/28 06:17:03;;;;;;;5.03;4.17;;;;;;;;;;5051561;28;20459;-54
2021/11/28 06:19:29;;;;;;;6.77;5.00;;;3.60;1.00;;;;;;5059367;28;20199;-57
2021/11/28 06:21:55;;;;;;;5.50;4.73;;;;;;;;;;5050044;28;20457;-54
2021/11/28 06:24:20;;;;;;;5.77;4.80;;;3.60;1.00;;;;;;5059860;28;20232;-56
2021/11/28 06:26:46;;;;;;;5.83;4.90;;;3.50;1.00;;;;;;5051891;28;20883;-55
2021/11/28 06:29:13;;;;;;;6.27;4.50;;;3.50;1.00;;;;;;5047989;28;20192;-54
2021/11/28 06:31:40;;;;;;;5.37;4.87;;;3.50;1.00;;;;;;5048667;28;20523;-55
2021/11/28 06:34:06;;;;;;;5.97;5.33;;;;;;;;;;5055074;28;21025;-55
2021/11/28 06:36:32;;;;;;;8.93;5.60;;;3.40;1.00;;;;;;5049667;28;20927;-55
2021/11/28 06:38:57;;;;;;;7.07;5.67;;;3.30;1.00;;;;;;5051197;28;20443;-55
2021/11/28 06:41:27;;;;;;;6.20;4.63;;;;;;;;;;5052927;28;20454;-55
2021/11/28 06:43:54;;;;;;;5.03;4.43;;;;;;;;;;5052257;28;20188;-56
2021/11/28 06:46:19;;;;;;;6.90;5.00;;;3.50;1.00;;;;;;5053535;28;20454;-55
2021/11/28 06:48:45;;;;;;;4.60;4.17;;;;;;;;;;5055569;28;20447;-55
2021/11/28 06:51:11;;;;;;;4.97;4.47;;;;;;;;;;5052533;28;20450;-55
2021/11/28 06:53:37;;;;;;;4.83;4.33;;;;;;;;;;5050158;28;20449;-54
2021/11/28 06:56:04;;;;;;;5.00;4.50;;;;;;;;;;5052583;28;20470;-55
2021/11/28 06:58:31;;;;;;;4.60;4.20;;;3.60;1.00;;;;;;5050461;28;21002;-54
2021/11/28 07:00:57;;;;;;;4.60;3.90;;;;;;;;;;5048965;28;20457;-55
2021/11/28 07:03:23;;;;;;;5.50;4.27;;;;;;;;;;5052740;28;20441;-55
2021/11/28 07:05:49;;;;;;;6.23;4.80;;;;;;;;;;5047418;28;20487;-55
2021/11/28 07:08:15;;;;;;;5.00;3.70;;;;;;;;;;5060262;28;20466;-55
2021/11/28 07:10:41;;;;;;;4.37;3.57;;;;;;;;;;5050742;28;20450;-56
2021/11/28 07:13:07;;;;;;;4.13;3.37;;;;;;;;;;5050773;28;20452;-55
2021/11/28 07:15:33;;;;;;;5.13;3.87;;;;;;;;;;5049958;28;20477;-55
2021/11/28 07:17:59;;;;;;;5.27;4.23;;;;;;;;;;5054821;28;21029;-57
2021/11/28 07:20:25;;;;;;;4.43;3.43;;;3.60;1.00;;;;;;5050565;28;20491;-56
2021/11/28 07:22:51;;;;;;;4.80;3.50;;;;;;;;;;5051521;28;20446;-54
2021/11/28 07:25:18;;;;;;;4.27;3.80;;;3.60;1.00;;;;;;5052109;28;20425;-56
2021/11/28 07:27:44;;;;;;;4.57;4.17;;;3.70;1.00;;;;;;5051562;28;20970;-56
2021/11/28 07:30:10;;;;;;;4.83;4.33;;;3.80;1.00;;;;;;5050426;28;20442;-54
2021/11/28 07:32:36;;;;;;;5.80;4.63;;;3.70;1.00;;;;;;5049149;28;20448;-55
2021/11/28 07:35:02;;;;;;;4.20;3.80;;;3.70;1.00;;;;;;5050168;28;20473;-55
2021/11/28 07:37:29;;;;;;;4.57;4.00;;;;;;;;;;5053493;28;20658;-56
2021/11/28 07:39:56;;;;;;;7.53;5.50;;;3.80;1.00;;;;;;5054167;28;20955;-57
2021/11/28 07:42:22;;;;;;;6.70;5.20;;;;;;;;;;5052821;28;20789;-56
2021/11/28 07:44:49;;;;;;;6.77;5.10;;;3.80;1.00;;;;;;5052279;28;20449;-54
2021/11/28 07:47:15;;;;;;;8.27;5.10;;;3.90;1.00;;;;;;5049671;28;20487;-55
2021/11/28 07:49:41;;;;;;;5.93;5.33;;;;;;;;;;5049337;28;20449;-54
2021/11/28 07:52:08;;;;;;;7.20;5.87;;;4.00;1.00;;;;;;5046190;28;20459;-55
2021/11/28 07:54:34;;;;;;;7.97;5.20;;;4.00;1.00;;;;;;5052531;28;20472;-55
2021/11/28 07:57:02;;;;;;;6.50;5.70;;;4.10;1.00;;;;;;5054302;28;20458;-54
2021/11/28 07:59:28;;;;;;;7.93;5.60;;;4.10;1.00;;;;;;5059703;28;20920;-58
2021/11/28 08:01:54;;;;;;;6.10;5.30;;;;;;;;;;5058273;28;20438;-55
2021/11/28 08:04:20;;;;;;;6.30;5.57;;;4.20;1.00;;;;;;5049993;28;20473;-56
2021/11/28 08:06:46;;;;;;;6.87;5.20;;;4.10;1.00;;;;;;5057865;28;20477;-54
2021/11/28 08:09:12;;;;;;;6.80;5.60;;;;;;;;;;5049343;28;20186;-55
2021/11/28 08:11:37;;;;;;;9.30;5.53;;;4.20;1.00;;;;;;5049629;28;20179;-55
2021/11/28 08:14:03;;;;;;;6.90;5.50;;;;;;;;;;5050323;28;20996;-55
2021/11/28 08:16:29;;;;;;;7.43;6.13;;;;;;;;;;5058489;28;20227;-55
2021/11/28 08:18:56;;;;;;;7.03;5.53;;;5.10;1.00;;;;;;5056445;28;20540;-55
2021/11/28 08:21:26;;;;;;;7.23;5.80;;;4.40;1.00;;;;;;5059565;28;20510;-55
2021/11/28 08:23:53;;;;;;;8.53;6.80;;;4.50;1.00;;;;;;5054483;28;20504;-56
2021/11/28 08:26:19;;;;;;;6.03;5.43;;;;;;;;;;5055151;28;20553;-55
2021/11/28 08:28:45;;;;;;;6.20;5.30;;;4.50;1.00;;;;;;5050390;28;20465;-58
2021/11/28 08:31:11;;;;;;;11.03;6.27;;;;;;;;;;5049580;28;20453;-56
2021/11/28 08:33:38;;;;;;;6.80;6.10;;;;;;;;;;5051585;28;20224;-57
2021/11/28 08:36:04;;;;;;;9.07;6.80;;;4.70;1.00;;;;;;5050014;28;20466;-57
2021/11/28 08:38:30;;;;;;;7.60;6.60;;;;;;;;;;5049174;28;21010;-56
2021/11/28 08:40:56;;;;;;;8.00;6.57;;;4.70;1.00;;;;;;5053991;28;20191;-55
2021/11/28 08:43:22;;;;;;;8.83;6.47;;;4.80;1.00;;;;;;5050347;28;20416;-56
2021/11/28 08:45:48;;;;;;;5.90;5.10;;;4.80;1.00;;;;;;5050624;28;20188;-56
2021/11/28 08:48:13;;;;;;;7.30;5.57;;;4.80;1.00;;;;;;5054768;28;20269;-57
2021/11/28 08:50:41;;;;;;;9.00;7.17;;;4.60;1.00;;;;;;5061083;28;20284;-56
2021/11/28 08:53:07;;;;;;;6.80;6.10;;;4.80;1.00;;;;;;5063031;28;21067;-55
2021/11/28 08:55:33;;;;;;;8.33;6.47;;;4.80;1.00;;;;;;5049560;28;20594;-56
2021/11/28 08:57:59;;;;;;;8.70;6.93;;;4.90;1.00;;;;;;5049316;28;20182;-56
2021/11/28 09:00:25;;;;;;;10.10;7.23;;;4.90;1.00;;;;;;5053076;28;20451;-57
2021/11/28 09:02:51;;;;;;;7.77;6.77;;;;;;;;;;5052242;28;20447;-58
2021/11/28 09:05:20;;;;;;;9.93;8.20;;;5.10;1.00;;;;;;5051494;28;20489;-57
2021/11/28 09:07:48;;;;;;;8.90;7.73;;;5.10;1.00;;;;;;5050688;28;20461;-58
2021/11/28 09:10:15;;;;;;;12.00;8.57;;;5.20;1.00;;;;;;5055156;28;20433;-57
2021/11/28 09:12:42;;;;;;;11.80;7.47;;;5.20;1.00;;;;;;5053543;28;20465;-56
2021/11/28 09:15:08;;;;;;;10.37;8.93;;;;;;;;;;5048272;28;20433;-58
2021/11/28 09:17:34;;;;;;;9.93;7.87;;;5.30;1.00;;;;;;5048396;28;20573;-56
2021/11/28 09:20:04;;;;;;;12.97;8.83;;;;;;;;;;5048656;28;20453;-57
2021/11/28 09:25:12;;;;;;;12.50;8.93;;;5.20;1.00;;;;;;5053404;28;20484;-56
2021/11/28 09:27:48;;;;;;;11.27;9.53;;;5.20;1.00;;;;;;5049542;28;20426;-55
2021/11/28 09:30:16;;;;;;;11.53;9.40;;;5.20;1.00;;;;;;5049629;28;20454;-56
2021/11/28 09:32:42;;;;;;;11.33;9.67;;;5.20;1.00;;;;;;5052041;28;20439;-55
2021/11/28 09:35:09;;;;;;;12.40;10.27;;;;;;;;;;5052933;28;20553;-56
2021/11/28 09:37:35;;;;;;;12.60;9.37;;;5.30;1.00;;;;;;5056191;28;20445;-55
2021/11/28 09:40:02;;;;;;;11.93;9.57;;;5.30;1.00;;;;;;5049136;28;20439;-56
2021/11/28 09:42:37;;;;;;;10.43;8.77;;;5.30;1.00;;;;;;5045801;28;20456;-57
2021/11/28 09:45:04;;;;;;;11.87;8.57;;;5.20;1.00;;;;;;5048391;28;20489;-57
2021/11/28 09:47:31;;;;;;;13.20;8.50;;;5.20;1.00;;;;;;5062056;28;20501;-55
2021/11/28 09:49:57;;;;;;;11.80;9.73;;;;;;;;;;5051282;28;21063;-55
2021/11/28 09:52:25;;;;;;;12.43;9.37;;;5.20;1.00;;;;;;5048533;28;21384;-56
2021/11/28 09:55:00;;;;;;;14.93;10.10;;;5.20;1.00;;;;;;5053288;28;20498;-55
2021/11/28 09:57:27;;;;;;;12.20;9.43;;;5.30;1.00;;;;;;5052063;28;20506;-55
2021/11/28 09:59:55;;;;;;;12.13;9.40;;;5.30;1.00;;;;;;5048056;28;20420;-56
2021/11/28 10:02:23;;;;;;;13.53;9.30;;;5.40;1.00;;;;;;5051510;28;20504;-57
2021/11/28 10:04:50;;;;;;;13.97;9.83;;;;;;;;;;5048638;28;20811;-57
2021/11/28 10:07:16;;;;;;;13.47;10.83;;;;;;;;;;5048987;28;20503;-56
2021/11/28 10:09:42;;;;;;;12.77;9.27;;;5.50;1.00;;;;;;5051316;28;20941;-54
2021/11/28 10:12:23;;;;;;;11.47;8.83;;;5.50;1.00;;;;;;5046874;28;20424;-57
2021/11/28 10:14:52;;;;;;;13.50;10.43;;;5.60;1.00;;;;;;5050515;28;20508;-55
2021/11/28 10:17:20;;;;;;;16.20;10.83;;;5.50;1.00;;;;;;5050799;28;20846;-55
2021/11/28 10:19:46;;;;;;;15.90;9.40;;;5.50;1.00;;;;;;5051262;28;20488;-57
2021/11/28 10:22:12;;;;;;;13.87;10.80;;;5.50;1.00;;;;;;5051504;28;20529;-58
2021/11/28 10:24:53;;;;;;;14.00;10.20;;;5.50;1.00;;;;;;5050422;28;20448;-55
2021/11/28 10:27:30;;;;;;;15.97;11.73;;;5.60;1.00;;;;;;5054127;28;21003;-56
2021/11/28 10:29:55;;;;;;;16.17;12.27;;;5.60;1.00;;;;;;5054975;28;20445;-57
2021/11/28 10:32:24;;;;;;;16.20;11.67;;;5.70;1.00;;;;;;5054537;28;20528;-59
2021/11/28 10:34:50;;;;;;;16.77;13.40;;;;;;;;;;5052916;28;20684;-58
2021/11/28 10:37:15;;;;;;;12.20;10.77;;;5.70;1.00;;;;;;5054351;28;20445;-54
2021/11/28 10:39:44;;;;;;;19.87;12.60;;;5.80;1.00;;;;;;5067306;28;20438;-57
2021/11/28 10:42:21;;;;;;;22.40;12.90;;;6.00;1.00;;;;;;5055844;28;20180;-57
2021/11/28 10:45:20;;;;;;;16.13;12.07;;;6.00;1.00;;;;;;5036478;28;20450;-57
2021/11/28 10:47:51;;;;;;;18.30;12.03;;;6.00;1.00;;;;;;5038961;28;20450;-57
2021/11/28 10:50:23;;;;;;;16.80;11.40;;;6.10;1.00;;;;;;5052393;28;20924;-56
2021/11/28 10:53:02;;;;;;;19.87;13.47;;;6.20;1.00;;;;;;5061933;28;20451;-57
2021/11/28 10:55:33;;;;;;;17.67;12.33;;;6.10;1.00;;;;;;5048580;28;21017;-57
2021/11/28 10:58:36;;;;;;;17.17;11.77;;;6.10;1.00;;;;;;5064135;28;20416;-57
2021/11/28 11:01:08;;;;;;;18.17;13.33;;;6.10;1.00;;;;;;5061464;28;20895;-58
2021/11/28 11:03:47;;;;;;;18.13;13.17;;;6.20;1.00;;;;;;5051239;28;20538;-57
2021/11/28 11:06:24;;;;;;;17.23;12.80;;;6.20;1.00;;;;;;5069279;28;20453;-57
2021/11/28 11:08:53;;;;;;;20.20;13.77;;;6.20;1.00;;;;;;5058166;28;20444;-57
2021/11/28 11:11:20;;;;;;;19.20;12.57;;;6.30;1.00;;;;;;5051204;28;20497;-57
2021/11/28 11:14:00;;;;;;;20.20;14.47;;;6.40;1.00;;;;;;5061719;28;20476;-56
2021/11/28 11:16:32;;;;;;;20.40;13.73;;;8.20;1.00;;;;;;5054849;28;20953;-58
2021/11/28 11:19:27;;;;;;;18.10;12.97;;;6.60;1.00;;;;;;5056923;28;20461;-56
2021/11/28 11:22:22;;;;;;;20.37;13.73;;;6.50;1.00;;;;;;5049730;28;20417;-57
2021/11/28 11:24:54;;;;;;;20.73;13.60;;;6.50;1.00;;;;;;5049848;28;20469;-57
2021/11/28 11:27:31;;;;;;;21.10;13.90;;;6.60;1.00;;;;;;5067405;28;20488;-57
2021/11/28 11:30:12;;;;;;;21.60;15.47;;;6.60;1.00;;;;;;5058244;28;20450;-57
2021/11/28 11:32:47;;;;;;;22.90;15.10;;;6.70;1.00;;;;;;5049856;28;20416;-57
2021/11/28 11:35:22;;;;;;;20.17;14.20;;;6.70;1.00;;;;;;5064603;28;20566;-55
2021/11/28 11:37:49;;;;;;;19.87;14.07;;;6.70;1.00;;;;;;5069485;28;20433;-56
2021/11/28 11:40:17;;;;;;;22.50;15.73;;;6.80;1.00;;;;;;5042391;28;20551;-57
2021/11/28 11:42:44;;;;;;;22.73;14.60;;;;;;;;;;5055471;28;20451;-59
2021/11/28 11:45:14;;;;;;;20.57;14.80;;;6.80;1.00;;;;;;5053682;28;20559;-57
2021/11/28 11:47:40;;;;;;;18.70;13.47;;;;;;;;;;5054662;28;20760;-59
2021/11/28 11:50:11;;;;;;;17.80;13.53;;;6.70;1.00;;;;;;5056998;28;20457;-58
2021/11/28 11:52:37;;;;;;;19.00;12.47;;;6.80;1.00;;;;;;5058616;28;20534;-58
2021/11/28 11:55:14;;;;;;;15.87;12.47;;;6.90;1.00;;;;;;5060608;28;20880;-57
2021/11/28 11:58:08;;;;;;;19.50;12.93;;;7.10;1.00;;;;;;5060616;28;20491;-56
2021/11/28 12:00:57;;;;;;;20.00;13.30;;;7.20;1.00;;;;;;5065316;28;20442;-59
2021/11/28 12:03:23;;;;;;;16.40;12.40;;;7.20;1.00;;;;;;5071589;28;20472;-57
2021/11/28 12:05:54;;;;;;;18.07;12.07;;;7.20;1.00;;;;;;5058852;28;20968;-57
2021/11/28 12:08:53;;;;;;;18.27;13.47;;;7.30;1.00;;;;;;5051452;28;20859;-57
2021/11/28 12:11:23;;;;;;;15.00;11.87;;;7.20;1.00;;;;;;5051529;28;20435;-57
2021/11/28 12:13:52;;;;;;;15.93;12.00;;;7.20;1.00;;;;;;5051487;28;20497;-56
2021/11/28 12:16:20;;;;;;;15.53;11.03;;;;;;;;;;5068620;28;20461;-56
2021/11/28 12:18:49;;;;;;;14.63;10.80;;;7.10;1.00;;;;;;5071827;28;20797;-55
2021/11/28 12:21:21;;;;;;;15.63;11.50;;;7.10;1.00;;;;;;5070965;28;20478;-55
2021/11/28 12:24:11;;;;;;;18.60;12.30;;;7.10;1.00;;;;;;5065703;28;20888;-57
2021/11/28 12:26:54;;;;;;;13.07;11.03;;;7.20;1.00;;;;;;5067802;28;20459;-58
2021/11/28 12:29:24;;;;;;;15.20;10.70;;;7.20;1.00;;;;;;5051001;28;20409;-56
2021/11/28 12:31:56;;;;;;;14.90;11.30;;;7.20;1.00;;;;;;5051141;28;20466;-57
2021/11/28 12:34:23;;;;;;;14.07;10.47;;;7.10;1.00;;;;;;5062624;28;20448;-57
2021/11/28 12:36:55;;;;;;;16.07;11.10;;;7.20;1.00;;;;;;5066491;28;20836;-57
2021/11/28 12:39:34;;;;;;;11.30;9.40;;;7.30;1.00;;;;;;5050530;28;20492;-58
2021/11/28 12:42:19;;;;;;;11.77;8.40;;;7.30;1.00;;;;;;5051026;28;20416;-57
2021/11/28 12:44:50;;;;;;;10.03;7.40;;;7.10;1.00;;;;;;5050879;28;20476;-56
2021/11/28 12:47:42;;;;;;;10.50;8.20;;;7.20;1.00;;;;;;5050677;28;20424;-58
2021/11/28 12:50:19;;;;;;;11.07;8.30;;;7.00;1.00;;;;;;5049222;28;20458;-56
2021/11/28 12:52:51;;;;;;;10.00;8.23;;;7.00;1.00;;;;;;5050539;28;20883;-58
2021/11/28 12:55:20;;;;;;;12.37;7.30;;;6.90;1.00;;;;;;5050563;28;20467;-57
2021/11/28 12:57:58;;;;;;;10.23;7.10;;;6.90;1.00;;;;;;5050769;28;20463;-57
2021/11/28 13:00:27;;;;;;;11.43;7.50;;;6.80;1.00;;;;;;5053112;28;20428;-56
2021/11/28 13:03:11;;;;;;;9.83;7.43;;;6.80;1.00;;;;;;5065512;28;20438;-58
2021/11/28 13:05:43;;;;;;;9.17;7.37;;;6.70;1.00;;;;;;5049000;28;20520;-55
2021/11/28 13:08:10;;;;;;;9.13;7.33;;;;;;;;;;5050447;28;20408;-57
2021/11/28 13:10:46;;;;;;;11.20;7.23;;;6.60;1.00;;;;;;5050140;28;20448;-57
2021/11/28 13:13:14;;;;;;;13.90;7.40;;;6.50;1.00;;;;;;5050856;28;20457;-57
2021/11/28 13:15:45;;;;;;;6.83;6.17;;;6.60;1.00;;;;;;5054729;28;20473;-57
2021/11/28 13:18:13;;;;;;;9.27;7.17;;;6.70;1.00;;;;;;5053969;28;20526;-56
2021/11/28 13:20:40;;;;;;;10.27;5.97;;;6.70;1.00;;;;;;5069251;28;20438;-56
2021/11/28 13:23:09;;;;;;;12.17;6.57;;;6.70;1.00;;;;;;5070094;28;20434;-57
2021/11/28 13:25:56;;;;;;;12.07;6.87;;;6.60;1.00;;;;;;5048455;28;20558;-57
2021/11/28 13:28:28;;;;;;;8.07;5.77;;;6.40;1.00;;;;;;5065335;28;20434;-55
2021/11/28 13:30:55;;;;;;;13.63;7.00;;;6.40;1.00;;;;;;5067590;28;20473;-55
2021/11/28 13:33:29;;;;;;;8.70;6.20;;;6.50;1.00;;;;;;5070651;28;20932;-56
2021/11/28 13:35:57;;;;;;;6.60;5.70;;;6.50;1.00;;;;;;5063043;28;20517;-57
2021/11/28 13:38:30;;;;;;;7.90;5.40;;;6.40;1.00;;;;;;5064634;28;20448;-57
2021/11/28 13:41:05;;;;;;;7.63;5.70;;;6.40;1.00;;;;;;5058119;28;20442;-57
2021/11/28 13:43:47;;;;;;;13.10;7.00;;;6.40;1.00;;;;;;5049934;28;20517;-57
2021/11/28 13:46:14;;;;;;;7.00;5.60;;;;;;;;;;5050584;28;21067;-57